sensor_id;sensor_type;location;lat;lon;timestamp;P1;durP1;ratioP1;P2;durP2;ratioP2
60704;SDS011;46545;38.014;-7.874;2022-10-16T00:00:42;2.17;;;1.55;;
60704;SDS011;46545;38.014;-7.874;2022-10-16T00:02:43;1.45;;;1.10;;
60704;SDS011;46545;38.014;-7.874;2022-10-16T00:04:43;2.00;;;1.55;;
60704;SDS011;46545;38.014;-7.874;2022-10-16T00:06:44;3.70;;;1.30;;
60704;SDS011;46545;38.014;-7.874;2022-10-16T00:08:44;1.73;;;1.42;;
60704;SDS011;46545;38.014;-7.874;2022-10-16T00:10:45;4.05;;;1.60;;
60704;SDS011;46545;38.014;-7.874;2022-10-16T00:12:45;2.50;;;1.70;;
60704;SDS011;46545;38.014;-7.874;2022-10-16T00:14:46;3.55;;;2.13;;
60704;SDS011;46545;38.014;-7.874;2022-10-16T00:16:46;3.30;;;2.58;;
60704;SDS011;46545;38.014;-7.874;2022-10-16T00:18:47;5.28;;;2.72;;
60704;SDS011;46545;38.014;-7.874;2022-10-16T00:20:47;5.07;;;3.35;;
60704;SDS011;46545;38.014;-7.874;2022-10-16T00:22:48;6.93;;;3.38;;
60704;SDS011;46545;38.014;-7.874;2022-10-16T00:24:48;5.72;;;3.25;;
60704;SDS011;46545;38.014;-7.874;2022-10-16T00:26:49;5.82;;;3.13;;
60704;SDS011;46545;38.014;-7.874;2022-10-16T00:28:50;3.63;;;2.75;;
60704;SDS011;46545;38.014;-7.874;2022-10-16T00:30:51;5.32;;;2.65;;
60704;SDS011;46545;38.014;-7.874;2022-10-16T00:32:51;4.43;;;3.00;;
60704;SDS011;46545;38.014;-7.874;2022-10-16T00:34:52;5.53;;;2.88;;
60704;SDS011;46545;38.014;-7.874;2022-10-16T00:36:54;3.38;;;2.80;;
60704;SDS011;46545;38.014;-7.874;2022-10-16T00:38:55;5.28;;;3.10;;
60704;SDS011;46545;38.014;-7.874;2022-10-16T00:40:57;3.88;;;2.70;;
60704;SDS011;46545;38.014;-7.874;2022-10-16T00:42:58;4.00;;;3.03;;
60704;SDS011;46545;38.014;-7.874;2022-10-16T00:44:58;4.07;;;2.50;;
60704;SDS011;46545;38.014;-7.874;2022-10-16T00:46:59;4.28;;;2.78;;
60704;SDS011;46545;38.014;-7.874;2022-10-16T00:49:00;4.32;;;2.75;;
60704;SDS011;46545;38.014;-7.874;2022-10-16T00:51:02;2.58;;;2.17;;
60704;SDS011;46545;38.014;-7.874;2022-10-16T00:53:03;3.80;;;2.38;;
60704;SDS011;46545;38.014;-7.874;2022-10-16T00:55:03;3.10;;;2.17;;
60704;SDS011;46545;38.014;-7.874;2022-10-16T00:57:05;4.80;;;2.70;;
60704;SDS011;46545;38.014;-7.874;2022-10-16T00:59:11;3.83;;;2.50;;
60704;SDS011;46545;38.014;-7.874;2022-10-16T01:01:14;3.38;;;2.13;;
60704;SDS011;46545;38.014;-7.874;2022-10-16T01:03:22;5.22;;;2.92;;
60704;SDS011;46545;38.014;-7.874;2022-10-16T01:05:23;2.83;;;2.03;;
60704;SDS011;46545;38.014;-7.874;2022-10-16T01:09:34;6.88;;;2.70;;
60704;SDS011;46545;38.014;-7.874;2022-10-16T01:11:39;3.88;;;2.53;;
60704;SDS011;46545;38.014;-7.874;2022-10-16T01:13:42;2.72;;;2.40;;
60704;SDS011;46545;38.014;-7.874;2022-10-16T01:15:59;2.72;;;2.30;;
60704;SDS011;46545;38.014;-7.874;2022-10-16T01:18:13;4.40;;;2.50;;
60704;SDS011;46545;38.014;-7.874;2022-10-16T01:20:33;5.22;;;2.30;;
60704;SDS011;46545;38.014;-7.874;2022-10-16T01:22:43;3.58;;;2.33;;
60704;SDS011;46545;38.014;-7.874;2022-10-16T01:24:48;5.47;;;2.80;;
60704;SDS011;46545;38.014;-7.874;2022-10-16T01:29:21;3.00;;;2.38;;
60704;SDS011;46545;38.014;-7.874;2022-10-16T01:31:25;3.28;;;2.40;;
60704;SDS011;46545;38.014;-7.874;2022-10-16T01:33:34;3.13;;;2.35;;
60704;SDS011;46545;38.014;-7.874;2022-10-16T01:35:39;5.18;;;2.25;;
60704;SDS011;46545;38.014;-7.874;2022-10-16T01:37:52;3.60;;;2.60;;
60704;SDS011;46545;38.014;-7.874;2022-10-16T01:39:54;3.40;;;2.28;;
60704;SDS011;46545;38.014;-7.874;2022-10-16T01:42:00;4.38;;;2.80;;
60704;SDS011;46545;38.014;-7.874;2022-10-16T01:44:13;4.97;;;2.17;;
60704;SDS011;46545;38.014;-7.874;2022-10-16T01:46:17;3.70;;;1.88;;
60704;SDS011;46545;38.014;-7.874;2022-10-16T01:48:19;4.65;;;2.85;;
60704;SDS011;46545;38.014;-7.874;2022-10-16T01:50:20;3.63;;;2.50;;
60704;SDS011;46545;38.014;-7.874;2022-10-16T01:52:23;2.60;;;2.00;;
60704;SDS011;46545;38.014;-7.874;2022-10-16T01:54:28;4.13;;;1.92;;
60704;SDS011;46545;38.014;-7.874;2022-10-16T01:56:31;2.92;;;2.03;;
60704;SDS011;46545;38.014;-7.874;2022-10-16T01:58:33;1.98;;;1.40;;
60704;SDS011;46545;38.014;-7.874;2022-10-16T02:00:36;1.85;;;1.52;;
60704;SDS011;46545;38.014;-7.874;2022-10-16T02:02:39;2.03;;;1.65;;
60704;SDS011;46545;38.014;-7.874;2022-10-16T02:04:42;4.57;;;2.00;;
60704;SDS011;46545;38.014;-7.874;2022-10-16T02:06:43;1.90;;;1.50;;
60704;SDS011;46545;38.014;-7.874;2022-10-16T02:08:44;3.67;;;2.30;;
60704;SDS011;46545;38.014;-7.874;2022-10-16T02:10:44;4.57;;;2.17;;
60704;SDS011;46545;38.014;-7.874;2022-10-16T02:12:47;3.30;;;1.92;;
60704;SDS011;46545;38.014;-7.874;2022-10-16T02:14:48;3.05;;;1.70;;
60704;SDS011;46545;38.014;-7.874;2022-10-16T02:16:49;1.70;;;1.60;;
60704;SDS011;46545;38.014;-7.874;2022-10-16T02:18:50;4.88;;;2.45;;
60704;SDS011;46545;38.014;-7.874;2022-10-16T02:20:51;3.05;;;2.00;;
60704;SDS011;46545;38.014;-7.874;2022-10-16T02:22:53;2.92;;;1.92;;
60704;SDS011;46545;38.014;-7.874;2022-10-16T02:24:56;2.17;;;1.92;;
60704;SDS011;46545;38.014;-7.874;2022-10-16T02:27:10;2.08;;;1.88;;
60704;SDS011;46545;38.014;-7.874;2022-10-16T02:29:12;2.53;;;2.17;;
60704;SDS011;46545;38.014;-7.874;2022-10-16T02:31:15;3.88;;;1.48;;
60704;SDS011;46545;38.014;-7.874;2022-10-16T02:33:18;6.50;;;2.17;;
60704;SDS011;46545;38.014;-7.874;2022-10-16T02:35:20;5.20;;;1.80;;
60704;SDS011;46545;38.014;-7.874;2022-10-16T02:37:21;3.88;;;1.67;;
60704;SDS011;46545;38.014;-7.874;2022-10-16T02:39:21;2.15;;;1.75;;
60704;SDS011;46545;38.014;-7.874;2022-10-16T02:41:22;2.67;;;1.60;;
60704;SDS011;46545;38.014;-7.874;2022-10-16T02:43:24;3.72;;;1.88;;
60704;SDS011;46545;38.014;-7.874;2022-10-16T02:45:25;4.70;;;2.10;;
60704;SDS011;46545;38.014;-7.874;2022-10-16T02:47:25;2.78;;;1.77;;
60704;SDS011;46545;38.014;-7.874;2022-10-16T02:49:26;1.70;;;1.38;;
60704;SDS011;46545;38.014;-7.874;2022-10-16T02:51:26;3.00;;;1.75;;
60704;SDS011;46545;38.014;-7.874;2022-10-16T02:53:27;5.20;;;1.80;;
60704;SDS011;46545;38.014;-7.874;2022-10-16T02:55:27;3.00;;;1.77;;
60704;SDS011;46545;38.014;-7.874;2022-10-16T02:57:28;2.45;;;1.65;;
60704;SDS011;46545;38.014;-7.874;2022-10-16T02:59:29;3.47;;;1.70;;
60704;SDS011;46545;38.014;-7.874;2022-10-16T03:01:29;3.10;;;1.95;;
60704;SDS011;46545;38.014;-7.874;2022-10-16T03:03:30;2.63;;;1.60;;
60704;SDS011;46545;38.014;-7.874;2022-10-16T03:05:30;2.08;;;1.35;;
60704;SDS011;46545;38.014;-7.874;2022-10-16T03:07:31;2.92;;;1.85;;
60704;SDS011;46545;38.014;-7.874;2022-10-16T03:09:31;2.83;;;1.80;;
60704;SDS011;46545;38.014;-7.874;2022-10-16T03:11:32;4.68;;;2.17;;
60704;SDS011;46545;38.014;-7.874;2022-10-16T03:13:32;2.67;;;1.88;;
60704;SDS011;46545;38.014;-7.874;2022-10-16T03:15:33;5.03;;;1.90;;
60704;SDS011;46545;38.014;-7.874;2022-10-16T03:17:33;5.50;;;1.90;;
60704;SDS011;46545;38.014;-7.874;2022-10-16T03:19:34;1.83;;;0.98;;
60704;SDS011;46545;38.014;-7.874;2022-10-16T03:21:36;1.27;;;1.17;;
60704;SDS011;46545;38.014;-7.874;2022-10-16T03:23:36;1.98;;;1.33;;
60704;SDS011;46545;38.014;-7.874;2022-10-16T03:25:37;3.00;;;1.50;;
60704;SDS011;46545;38.014;-7.874;2022-10-16T03:27:38;2.72;;;1.20;;
60704;SDS011;46545;38.014;-7.874;2022-10-16T03:29:38;1.67;;;1.20;;
60704;SDS011;46545;38.014;-7.874;2022-10-16T03:31:39;3.63;;;1.85;;
60704;SDS011;46545;38.014;-7.874;2022-10-16T03:33:39;2.97;;;1.77;;
60704;SDS011;46545;38.014;-7.874;2022-10-16T03:35:40;3.55;;;1.90;;
60704;SDS011;46545;38.014;-7.874;2022-10-16T03:37:40;3.88;;;2.55;;
60704;SDS011;46545;38.014;-7.874;2022-10-16T03:39:41;2.70;;;1.95;;
60704;SDS011;46545;38.014;-7.874;2022-10-16T03:41:41;4.18;;;2.17;;
60704;SDS011;46545;38.014;-7.874;2022-10-16T03:43:42;5.68;;;2.75;;
60704;SDS011;46545;38.014;-7.874;2022-10-16T03:45:42;3.60;;;2.47;;
60704;SDS011;46545;38.014;-7.874;2022-10-16T03:47:43;3.38;;;2.38;;
60704;SDS011;46545;38.014;-7.874;2022-10-16T03:49:43;3.10;;;1.90;;
60704;SDS011;46545;38.014;-7.874;2022-10-16T03:51:44;4.30;;;2.35;;
60704;SDS011;46545;38.014;-7.874;2022-10-16T03:53:44;4.50;;;2.15;;
60704;SDS011;46545;38.014;-7.874;2022-10-16T03:55:45;7.20;;;2.42;;
60704;SDS011;46545;38.014;-7.874;2022-10-16T03:57:45;3.20;;;1.98;;
60704;SDS011;46545;38.014;-7.874;2022-10-16T03:59:46;3.78;;;2.17;;
60704;SDS011;46545;38.014;-7.874;2022-10-16T04:01:47;7.10;;;2.53;;
60704;SDS011;46545;38.014;-7.874;2022-10-16T04:03:47;3.47;;;2.63;;
60704;SDS011;46545;38.014;-7.874;2022-10-16T04:05:48;7.07;;;2.58;;
60704;SDS011;46545;38.014;-7.874;2022-10-16T04:07:48;5.93;;;2.97;;
60704;SDS011;46545;38.014;-7.874;2022-10-16T04:09:49;4.97;;;3.20;;
60704;SDS011;46545;38.014;-7.874;2022-10-16T04:11:52;5.35;;;3.10;;
60704;SDS011;46545;38.014;-7.874;2022-10-16T04:13:52;4.07;;;2.13;;
60704;SDS011;46545;38.014;-7.874;2022-10-16T04:15:53;4.00;;;2.42;;
60704;SDS011;46545;38.014;-7.874;2022-10-16T04:17:53;3.67;;;2.65;;
60704;SDS011;46545;38.014;-7.874;2022-10-16T04:19:54;3.92;;;2.63;;
60704;SDS011;46545;38.014;-7.874;2022-10-16T04:21:54;4.63;;;2.92;;
60704;SDS011;46545;38.014;-7.874;2022-10-16T04:23:55;4.07;;;2.13;;
60704;SDS011;46545;38.014;-7.874;2022-10-16T04:25:55;2.92;;;2.38;;
60704;SDS011;46545;38.014;-7.874;2022-10-16T04:27:56;5.60;;;2.42;;
60704;SDS011;46545;38.014;-7.874;2022-10-16T04:29:58;4.45;;;2.80;;
60704;SDS011;46545;38.014;-7.874;2022-10-16T04:31:59;3.88;;;2.35;;
60704;SDS011;46545;38.014;-7.874;2022-10-16T04:33:59;4.20;;;2.20;;
60704;SDS011;46545;38.014;-7.874;2022-10-16T04:36:00;5.32;;;2.47;;
60704;SDS011;46545;38.014;-7.874;2022-10-16T04:38:01;3.53;;;2.45;;
60704;SDS011;46545;38.014;-7.874;2022-10-16T04:40:02;4.35;;;2.35;;
60704;SDS011;46545;38.014;-7.874;2022-10-16T04:42:03;4.20;;;2.80;;
60704;SDS011;46545;38.014;-7.874;2022-10-16T04:44:03;5.43;;;2.25;;
60704;SDS011;46545;38.014;-7.874;2022-10-16T04:46:04;3.92;;;2.67;;
60704;SDS011;46545;38.014;-7.874;2022-10-16T04:48:05;3.80;;;2.92;;
60704;SDS011;46545;38.014;-7.874;2022-10-16T04:50:05;6.20;;;3.13;;
60704;SDS011;46545;38.014;-7.874;2022-10-16T04:52:06;6.32;;;2.50;;
60704;SDS011;46545;38.014;-7.874;2022-10-16T04:54:09;3.97;;;2.42;;
60704;SDS011;46545;38.014;-7.874;2022-10-16T04:56:09;4.00;;;2.70;;
60704;SDS011;46545;38.014;-7.874;2022-10-16T04:58:10;6.15;;;2.83;;
60704;SDS011;46545;38.014;-7.874;2022-10-16T05:00:11;3.67;;;2.85;;
60704;SDS011;46545;38.014;-7.874;2022-10-16T05:02:11;7.90;;;4.28;;
60704;SDS011;46545;38.014;-7.874;2022-10-16T05:04:12;5.38;;;2.90;;
60704;SDS011;46545;38.014;-7.874;2022-10-16T05:06:12;3.47;;;2.53;;
60704;SDS011;46545;38.014;-7.874;2022-10-16T05:08:13;5.32;;;2.47;;
60704;SDS011;46545;38.014;-7.874;2022-10-16T05:10:14;3.35;;;2.13;;
60704;SDS011;46545;38.014;-7.874;2022-10-16T05:12:15;3.50;;;2.45;;
60704;SDS011;46545;38.014;-7.874;2022-10-16T05:14:15;6.25;;;2.45;;
60704;SDS011;46545;38.014;-7.874;2022-10-16T05:16:16;4.00;;;1.98;;
60704;SDS011;46545;38.014;-7.874;2022-10-16T05:18:16;3.60;;;2.22;;
60704;SDS011;46545;38.014;-7.874;2022-10-16T05:20:17;3.08;;;1.67;;
60704;SDS011;46545;38.014;-7.874;2022-10-16T05:22:18;3.05;;;2.17;;
60704;SDS011;46545;38.014;-7.874;2022-10-16T05:24:18;3.08;;;1.98;;
60704;SDS011;46545;38.014;-7.874;2022-10-16T05:26:19;1.95;;;1.50;;
60704;SDS011;46545;38.014;-7.874;2022-10-16T05:28:19;3.65;;;1.42;;
60704;SDS011;46545;38.014;-7.874;2022-10-16T05:30:20;3.10;;;1.40;;
60704;SDS011;46545;38.014;-7.874;2022-10-16T05:32:20;3.42;;;1.35;;
60704;SDS011;46545;38.014;-7.874;2022-10-16T05:34:21;1.95;;;0.98;;
60704;SDS011;46545;38.014;-7.874;2022-10-16T05:36:21;2.60;;;1.10;;
60704;SDS011;46545;38.014;-7.874;2022-10-16T05:38:22;1.90;;;1.13;;
60704;SDS011;46545;38.014;-7.874;2022-10-16T05:40:22;2.85;;;1.30;;
60704;SDS011;46545;38.014;-7.874;2022-10-16T05:42:23;1.50;;;1.10;;
60704;SDS011;46545;38.014;-7.874;2022-10-16T05:44:24;1.17;;;0.98;;
60704;SDS011;46545;38.014;-7.874;2022-10-16T05:46:24;2.03;;;1.00;;
60704;SDS011;46545;38.014;-7.874;2022-10-16T05:48:25;1.90;;;1.55;;
60704;SDS011;46545;38.014;-7.874;2022-10-16T05:50:25;1.90;;;1.35;;
60704;SDS011;46545;38.014;-7.874;2022-10-16T05:52:27;2.72;;;1.02;;
60704;SDS011;46545;38.014;-7.874;2022-10-16T05:54:27;1.30;;;1.00;;
60704;SDS011;46545;38.014;-7.874;2022-10-16T05:56:28;1.45;;;0.98;;
60704;SDS011;46545;38.014;-7.874;2022-10-16T05:58:29;1.45;;;0.90;;
60704;SDS011;46545;38.014;-7.874;2022-10-16T06:00:30;1.35;;;0.88;;
60704;SDS011;46545;38.014;-7.874;2022-10-16T06:02:30;1.38;;;0.90;;
60704;SDS011;46545;38.014;-7.874;2022-10-16T06:04:31;1.50;;;1.10;;
60704;SDS011;46545;38.014;-7.874;2022-10-16T06:06:31;1.48;;;0.98;;
60704;SDS011;46545;38.014;-7.874;2022-10-16T06:08:32;3.40;;;1.38;;
60704;SDS011;46545;38.014;-7.874;2022-10-16T06:10:32;2.13;;;1.08;;
60704;SDS011;46545;38.014;-7.874;2022-10-16T06:12:33;2.90;;;0.98;;
60704;SDS011;46545;38.014;-7.874;2022-10-16T06:14:33;3.15;;;1.58;;
60704;SDS011;46545;38.014;-7.874;2022-10-16T06:16:35;1.83;;;1.08;;
60704;SDS011;46545;38.014;-7.874;2022-10-16T06:18:35;1.25;;;1.05;;
60704;SDS011;46545;38.014;-7.874;2022-10-16T06:20:36;0.80;;;0.80;;
60704;SDS011;46545;38.014;-7.874;2022-10-16T06:22:37;1.15;;;0.80;;
60704;SDS011;46545;38.014;-7.874;2022-10-16T06:24:38;1.92;;;0.63;;
60704;SDS011;46545;38.014;-7.874;2022-10-16T06:26:38;1.38;;;0.80;;
60704;SDS011;46545;38.014;-7.874;2022-10-16T06:28:39;1.70;;;0.75;;
60704;SDS011;46545;38.014;-7.874;2022-10-16T06:30:39;2.30;;;1.20;;
60704;SDS011;46545;38.014;-7.874;2022-10-16T06:32:40;2.00;;;1.05;;
60704;SDS011;46545;38.014;-7.874;2022-10-16T06:34:40;1.33;;;1.08;;
60704;SDS011;46545;38.014;-7.874;2022-10-16T06:36:41;0.98;;;0.60;;
60704;SDS011;46545;38.014;-7.874;2022-10-16T06:38:43;3.10;;;0.60;;
60704;SDS011;46545;38.014;-7.874;2022-10-16T06:40:44;1.88;;;0.50;;
60704;SDS011;46545;38.014;-7.874;2022-10-16T06:42:44;0.73;;;0.50;;
60704;SDS011;46545;38.014;-7.874;2022-10-16T06:44:45;0.52;;;0.52;;
60704;SDS011;46545;38.014;-7.874;2022-10-16T06:46:45;1.38;;;0.57;;
60704;SDS011;46545;38.014;-7.874;2022-10-16T06:48:46;3.63;;;0.77;;
60704;SDS011;46545;38.014;-7.874;2022-10-16T06:50:56;0.85;;;0.70;;
60704;SDS011;46545;38.014;-7.874;2022-10-16T06:52:57;1.55;;;0.47;;
60704;SDS011;46545;38.014;-7.874;2022-10-16T06:54:57;1.27;;;0.52;;
60704;SDS011;46545;38.014;-7.874;2022-10-16T06:56:58;2.17;;;0.73;;
60704;SDS011;46545;38.014;-7.874;2022-10-16T06:59:00;2.00;;;0.73;;
60704;SDS011;46545;38.014;-7.874;2022-10-16T07:01:01;1.42;;;0.57;;
60704;SDS011;46545;38.014;-7.874;2022-10-16T07:03:01;1.13;;;0.80;;
60704;SDS011;46545;38.014;-7.874;2022-10-16T07:05:02;2.28;;;1.05;;
60704;SDS011;46545;38.014;-7.874;2022-10-16T07:07:03;3.13;;;1.30;;
60704;SDS011;46545;38.014;-7.874;2022-10-16T07:09:04;1.05;;;0.88;;
60704;SDS011;46545;38.014;-7.874;2022-10-16T07:11:06;2.15;;;1.05;;
60704;SDS011;46545;38.014;-7.874;2022-10-16T07:13:07;1.13;;;0.93;;
60704;SDS011;46545;38.014;-7.874;2022-10-16T07:15:13;1.85;;;1.27;;
60704;SDS011;46545;38.014;-7.874;2022-10-16T07:17:13;3.22;;;1.15;;
60704;SDS011;46545;38.014;-7.874;2022-10-16T07:19:14;5.97;;;1.38;;
60704;SDS011;46545;38.014;-7.874;2022-10-16T07:21:20;3.05;;;1.80;;
60704;SDS011;46545;38.014;-7.874;2022-10-16T07:23:21;5.95;;;2.20;;
60704;SDS011;46545;38.014;-7.874;2022-10-16T07:25:21;2.22;;;1.88;;
60704;SDS011;46545;38.014;-7.874;2022-10-16T07:27:22;4.88;;;2.50;;
60704;SDS011;46545;38.014;-7.874;2022-10-16T07:29:24;2.47;;;2.10;;
60704;SDS011;46545;38.014;-7.874;2022-10-16T07:31:24;3.03;;;1.67;;
60704;SDS011;46545;38.014;-7.874;2022-10-16T07:33:25;6.75;;;1.67;;
60704;SDS011;46545;38.014;-7.874;2022-10-16T07:35:25;2.72;;;2.33;;
60704;SDS011;46545;38.014;-7.874;2022-10-16T07:37:26;5.05;;;2.50;;
60704;SDS011;46545;38.014;-7.874;2022-10-16T07:39:27;4.82;;;2.95;;
60704;SDS011;46545;38.014;-7.874;2022-10-16T07:41:27;4.68;;;2.28;;
60704;SDS011;46545;38.014;-7.874;2022-10-16T07:43:28;3.75;;;1.70;;
60704;SDS011;46545;38.014;-7.874;2022-10-16T07:45:29;3.33;;;1.92;;
60704;SDS011;46545;38.014;-7.874;2022-10-16T07:47:29;3.63;;;1.98;;
60704;SDS011;46545;38.014;-7.874;2022-10-16T07:49:30;3.50;;;1.58;;
60704;SDS011;46545;38.014;-7.874;2022-10-16T07:51:31;3.88;;;2.25;;
60704;SDS011;46545;38.014;-7.874;2022-10-16T07:53:31;4.57;;;1.60;;
60704;SDS011;46545;38.014;-7.874;2022-10-16T07:55:32;2.33;;;1.55;;
60704;SDS011;46545;38.014;-7.874;2022-10-16T07:57:32;6.47;;;2.00;;
60704;SDS011;46545;38.014;-7.874;2022-10-16T07:59:33;2.97;;;2.00;;
60704;SDS011;46545;38.014;-7.874;2022-10-16T08:01:33;1.90;;;1.23;;
60704;SDS011;46545;38.014;-7.874;2022-10-16T08:03:34;3.35;;;1.38;;
60704;SDS011;46545;38.014;-7.874;2022-10-16T08:05:34;1.10;;;0.82;;
60704;SDS011;46545;38.014;-7.874;2022-10-16T08:07:35;1.30;;;0.75;;
60704;SDS011;46545;38.014;-7.874;2022-10-16T08:09:35;2.08;;;1.33;;
60704;SDS011;46545;38.014;-7.874;2022-10-16T08:11:36;3.60;;;1.20;;
60704;SDS011;46545;38.014;-7.874;2022-10-16T08:13:37;4.40;;;1.33;;
60704;SDS011;46545;38.014;-7.874;2022-10-16T08:15:37;1.42;;;0.73;;
60704;SDS011;46545;38.014;-7.874;2022-10-16T08:17:38;0.82;;;0.73;;
60704;SDS011;46545;38.014;-7.874;2022-10-16T08:19:38;1.30;;;0.93;;
60704;SDS011;46545;38.014;-7.874;2022-10-16T08:21:39;1.88;;;1.30;;
60704;SDS011;46545;38.014;-7.874;2022-10-16T08:23:39;1.88;;;1.45;;
60704;SDS011;46545;38.014;-7.874;2022-10-16T08:25:40;1.30;;;0.85;;
60704;SDS011;46545;38.014;-7.874;2022-10-16T08:27:41;0.80;;;0.63;;
60704;SDS011;46545;38.014;-7.874;2022-10-16T08:29:41;1.30;;;0.80;;
60704;SDS011;46545;38.014;-7.874;2022-10-16T08:31:42;0.77;;;0.73;;
60704;SDS011;46545;38.014;-7.874;2022-10-16T08:33:43;1.70;;;1.38;;
60704;SDS011;46545;38.014;-7.874;2022-10-16T08:35:51;1.57;;;1.30;;
60704;SDS011;46545;38.014;-7.874;2022-10-16T08:37:54;2.38;;;1.23;;
60704;SDS011;46545;38.014;-7.874;2022-10-16T08:39:54;2.88;;;1.50;;
60704;SDS011;46545;38.014;-7.874;2022-10-16T08:50:38;2.20;;;1.70;;
60704;SDS011;46545;38.014;-7.874;2022-10-16T08:52:41;1.65;;;1.40;;
60704;SDS011;46545;38.014;-7.874;2022-10-16T08:54:43;2.33;;;1.50;;
60704;SDS011;46545;38.014;-7.874;2022-10-16T08:56:45;5.80;;;2.13;;
60704;SDS011;46545;38.014;-7.874;2022-10-16T08:58:46;3.00;;;2.10;;
60704;SDS011;46545;38.014;-7.874;2022-10-16T09:00:49;3.75;;;2.47;;
60704;SDS011;46545;38.014;-7.874;2022-10-16T09:03:03;4.28;;;2.15;;
60704;SDS011;46545;38.014;-7.874;2022-10-16T09:11:53;3.95;;;2.15;;
60704;SDS011;46545;38.014;-7.874;2022-10-16T09:14:03;2.45;;;1.80;;
60704;SDS011;46545;38.014;-7.874;2022-10-16T09:16:14;2.78;;;1.65;;
60704;SDS011;46545;38.014;-7.874;2022-10-16T09:18:37;4.25;;;1.33;;
60704;SDS011;46545;38.014;-7.874;2022-10-16T09:20:44;3.83;;;1.13;;
60704;SDS011;46545;38.014;-7.874;2022-10-16T09:22:45;1.63;;;1.08;;
60704;SDS011;46545;38.014;-7.874;2022-10-16T09:24:46;1.85;;;1.10;;
60704;SDS011;46545;38.014;-7.874;2022-10-16T09:26:47;1.58;;;1.25;;
60704;SDS011;46545;38.014;-7.874;2022-10-16T09:28:47;2.50;;;1.48;;
60704;SDS011;46545;38.014;-7.874;2022-10-16T09:30:48;4.10;;;1.23;;
60704;SDS011;46545;38.014;-7.874;2022-10-16T09:32:50;1.88;;;1.20;;
60704;SDS011;46545;38.014;-7.874;2022-10-16T09:34:52;2.85;;;1.30;;
60704;SDS011;46545;38.014;-7.874;2022-10-16T09:36:54;9.98;;;1.35;;
60704;SDS011;46545;38.014;-7.874;2022-10-16T09:39:06;2.15;;;1.67;;
60704;SDS011;46545;38.014;-7.874;2022-10-16T09:41:13;4.53;;;2.20;;
60704;SDS011;46545;38.014;-7.874;2022-10-16T09:45:24;3.65;;;1.98;;
60704;SDS011;46545;38.014;-7.874;2022-10-16T09:47:29;5.10;;;1.75;;
60704;SDS011;46545;38.014;-7.874;2022-10-16T09:49:30;2.75;;;2.22;;
60704;SDS011;46545;38.014;-7.874;2022-10-16T09:53:38;5.88;;;2.72;;
60704;SDS011;46545;38.014;-7.874;2022-10-16T09:55:48;4.63;;;2.10;;
60704;SDS011;46545;38.014;-7.874;2022-10-16T09:57:50;3.83;;;1.90;;
60704;SDS011;46545;38.014;-7.874;2022-10-16T09:59:52;2.08;;;1.70;;
60704;SDS011;46545;38.014;-7.874;2022-10-16T10:01:53;3.72;;;1.58;;
60704;SDS011;46545;38.014;-7.874;2022-10-16T10:03:55;2.67;;;1.63;;
60704;SDS011;46545;38.014;-7.874;2022-10-16T10:06:03;3.13;;;1.45;;
60704;SDS011;46545;38.014;-7.874;2022-10-16T10:08:05;4.95;;;2.00;;
60704;SDS011;46545;38.014;-7.874;2022-10-16T10:10:18;4.57;;;1.80;;
60704;SDS011;46545;38.014;-7.874;2022-10-16T10:14:27;3.30;;;1.83;;
60704;SDS011;46545;38.014;-7.874;2022-10-16T10:16:29;5.40;;;2.20;;
60704;SDS011;46545;38.014;-7.874;2022-10-16T10:18:29;3.50;;;2.00;;
60704;SDS011;46545;38.014;-7.874;2022-10-16T10:20:33;4.28;;;1.80;;
60704;SDS011;46545;38.014;-7.874;2022-10-16T10:22:44;3.97;;;2.40;;
60704;SDS011;46545;38.014;-7.874;2022-10-16T10:27:16;6.07;;;1.75;;
60704;SDS011;46545;38.014;-7.874;2022-10-16T10:37:51;4.95;;;1.90;;
60704;SDS011;46545;38.014;-7.874;2022-10-16T10:44:20;5.47;;;2.15;;
60704;SDS011;46545;38.014;-7.874;2022-10-16T10:46:32;4.63;;;2.10;;
60704;SDS011;46545;38.014;-7.874;2022-10-16T10:57:09;5.40;;;1.70;;
60704;SDS011;46545;38.014;-7.874;2022-10-16T11:01:47;3.60;;;1.55;;
60704;SDS011;46545;38.014;-7.874;2022-10-16T11:06:14;4.35;;;2.35;;
60704;SDS011;46545;38.014;-7.874;2022-10-16T11:08:52;4.00;;;2.22;;
60704;SDS011;46545;38.014;-7.874;2022-10-16T11:10:47;3.35;;;1.83;;
60704;SDS011;46545;38.014;-7.874;2022-10-16T11:12:51;3.67;;;2.10;;
60704;SDS011;46545;38.014;-7.874;2022-10-16T11:21:07;4.72;;;1.80;;
60704;SDS011;46545;38.014;-7.874;2022-10-16T11:23:14;3.15;;;1.80;;
60704;SDS011;46545;38.014;-7.874;2022-10-16T11:25:23;4.25;;;1.80;;
60704;SDS011;46545;38.014;-7.874;2022-10-16T11:29:56;2.60;;;2.03;;
60704;SDS011;46545;38.014;-7.874;2022-10-16T11:32:00;5.32;;;2.25;;
60704;SDS011;46545;38.014;-7.874;2022-10-16T11:36:28;4.90;;;2.20;;
60704;SDS011;46545;38.014;-7.874;2022-10-16T11:38:43;4.85;;;1.80;;
60704;SDS011;46545;38.014;-7.874;2022-10-16T11:40:45;11.20;;;5.47;;
60704;SDS011;46545;38.014;-7.874;2022-10-16T11:42:53;5.00;;;3.15;;
60704;SDS011;46545;38.014;-7.874;2022-10-16T11:49:31;3.08;;;1.75;;
60704;SDS011;46545;38.014;-7.874;2022-10-16T11:51:39;7.93;;;1.98;;
60704;SDS011;46545;38.014;-7.874;2022-10-16T11:55:59;2.25;;;1.80;;
60704;SDS011;46545;38.014;-7.874;2022-10-16T11:58:01;2.60;;;1.90;;
60704;SDS011;46545;38.014;-7.874;2022-10-16T12:04:23;2.53;;;1.80;;
60704;SDS011;46545;38.014;-7.874;2022-10-16T12:08:31;8.02;;;2.78;;
60704;SDS011;46545;38.014;-7.874;2022-10-16T12:10:33;7.25;;;1.83;;
60704;SDS011;46545;38.014;-7.874;2022-10-16T12:12:38;4.68;;;1.85;;
60704;SDS011;46545;38.014;-7.874;2022-10-16T12:14:39;5.07;;;1.73;;
60704;SDS011;46545;38.014;-7.874;2022-10-16T12:19:12;4.47;;;2.20;;
60704;SDS011;46545;38.014;-7.874;2022-10-16T12:21:14;8.65;;;2.00;;
60704;SDS011;46545;38.014;-7.874;2022-10-16T12:23:19;2.78;;;1.70;;
60704;SDS011;46545;38.014;-7.874;2022-10-16T12:27:24;4.75;;;2.03;;
60704;SDS011;46545;38.014;-7.874;2022-10-16T12:30:00;4.60;;;1.90;;
60704;SDS011;46545;38.014;-7.874;2022-10-16T12:31:54;3.92;;;1.90;;
60704;SDS011;46545;38.014;-7.874;2022-10-16T12:33:58;2.97;;;1.80;;
60704;SDS011;46545;38.014;-7.874;2022-10-16T12:36:00;4.75;;;2.05;;
60704;SDS011;46545;38.014;-7.874;2022-10-16T12:38:11;9.93;;;2.33;;
60704;SDS011;46545;38.014;-7.874;2022-10-16T12:40:16;9.60;;;2.15;;
60704;SDS011;46545;38.014;-7.874;2022-10-16T12:44:26;2.55;;;2.25;;
60704;SDS011;46545;38.014;-7.874;2022-10-16T12:46:36;7.30;;;2.20;;
60704;SDS011;46545;38.014;-7.874;2022-10-16T12:48:38;3.53;;;2.05;;
60704;SDS011;46545;38.014;-7.874;2022-10-16T12:50:38;7.72;;;1.88;;
60704;SDS011;46545;38.014;-7.874;2022-10-16T12:52:40;4.45;;;1.95;;
60704;SDS011;46545;38.014;-7.874;2022-10-16T12:54:41;7.13;;;1.88;;
60704;SDS011;46545;38.014;-7.874;2022-10-16T13:03:24;3.35;;;1.92;;
60704;SDS011;46545;38.014;-7.874;2022-10-16T13:07:46;3.03;;;1.80;;
60704;SDS011;46545;38.014;-7.874;2022-10-16T13:26:46;2.88;;;1.73;;
60704;SDS011;46545;38.014;-7.874;2022-10-16T13:28:49;2.70;;;2.05;;
60704;SDS011;46545;38.014;-7.874;2022-10-16T13:30:51;2.67;;;2.40;;
60704;SDS011;46545;38.014;-7.874;2022-10-16T13:32:58;3.33;;;1.90;;
60704;SDS011;46545;38.014;-7.874;2022-10-16T13:34:59;3.00;;;2.58;;
60704;SDS011;46545;38.014;-7.874;2022-10-16T13:37:01;2.85;;;2.42;;
60704;SDS011;46545;38.014;-7.874;2022-10-16T13:41:15;4.43;;;2.30;;
60704;SDS011;46545;38.014;-7.874;2022-10-16T13:43:19;2.80;;;2.17;;
60704;SDS011;46545;38.014;-7.874;2022-10-16T13:45:21;6.10;;;2.50;;
60704;SDS011;46545;38.014;-7.874;2022-10-16T13:47:23;4.15;;;2.17;;
60704;SDS011;46545;38.014;-7.874;2022-10-16T13:49:24;6.43;;;2.60;;
60704;SDS011;46545;38.014;-7.874;2022-10-16T13:51:25;2.45;;;2.25;;
60704;SDS011;46545;38.014;-7.874;2022-10-16T13:53:25;3.78;;;1.70;;
60704;SDS011;46545;38.014;-7.874;2022-10-16T13:55:32;2.67;;;2.13;;
60704;SDS011;46545;38.014;-7.874;2022-10-16T13:57:33;10.48;;;2.25;;
60704;SDS011;46545;38.014;-7.874;2022-10-16T13:59:34;5.18;;;2.00;;